createdAt,value
2018-06-20T00:00:34.418Z,21.12
2018-06-20T00:01:34.573Z,21.12
2018-06-20T00:02:34.447Z,21.12
2018-06-20T00:03:34.403Z,21.12
2018-06-20T00:04:34.416Z,21.06
2018-06-20T00:05:34.395Z,21.12
2018-06-20T00:06:34.421Z,21.12
2018-06-20T00:07:34.425Z,21.06
2018-06-20T00:08:34.415Z,21.12
2018-06-20T00:09:34.422Z,21.06
2018-06-20T00:10:34.436Z,21.12
2018-06-20T00:11:34.406Z,21.06
2018-06-20T00:12:34.397Z,21.06
2018-06-20T00:13:34.393Z,21.06
2018-06-20T00:14:34.388Z,21
2018-06-20T00:15:34.402Z,21
2018-06-20T00:16:34.391Z,21
2018-06-20T00:17:34.424Z,20.94
2018-06-20T00:18:34.424Z,21
2018-06-20T00:19:34.429Z,20.94
2018-06-20T00:20:34.412Z,20.94
2018-06-20T00:21:34.459Z,20.88
2018-06-20T00:22:34.447Z,20.88
2018-06-20T00:23:34.445Z,20.88
2018-06-20T00:24:34.400Z,20.69
2018-06-20T00:25:34.400Z,20.56
2018-06-20T00:26:34.468Z,20.56
2018-06-20T00:27:34.467Z,20.5
2018-06-20T00:28:34.451Z,20.44
2018-06-20T00:29:34.394Z,20.5
2018-06-20T00:30:34.420Z,20.44
2018-06-20T00:31:34.406Z,20.44
2018-06-20T00:32:34.589Z,20.44
2018-06-20T00:33:34.483Z,20.37
2018-06-20T00:34:34.549Z,20.37
2018-06-20T00:35:34.440Z,20.37
2018-06-20T00:36:34.481Z,20.37
2018-06-20T00:37:34.429Z,20.37
2018-06-20T00:38:34.452Z,20.37
2018-06-20T00:39:34.434Z,20.37
2018-06-20T00:40:34.451Z,20.31
2018-06-20T00:41:34.482Z,20.31
2018-06-20T00:42:34.479Z,20.31
2018-06-20T00:43:34.414Z,20.31
2018-06-20T00:44:34.393Z,20.31
2018-06-20T00:45:34.566Z,20.37
2018-06-20T00:46:34.404Z,20.37
2018-06-20T00:47:34.449Z,20.37
2018-06-20T00:48:34.439Z,20.37
2018-06-20T00:49:34.457Z,20.37
2018-06-20T00:50:34.580Z,20.37
2018-06-20T00:51:34.420Z,20.31
2018-06-20T00:52:34.428Z,20.31
2018-06-20T00:53:34.433Z,20.31
2018-06-20T00:54:34.415Z,20.25
2018-06-20T00:55:34.500Z,20.25
2018-06-20T00:56:34.455Z,20.31
2018-06-20T00:57:34.460Z,20.25
2018-06-20T00:58:34.425Z,20.31
2018-06-20T00:59:34.415Z,20.25
2018-06-20T01:00:34.471Z,20.25
2018-06-20T01:01:34.446Z,20.25
2018-06-20T01:02:34.433Z,20.25
2018-06-20T01:03:34.429Z,20.25
2018-06-20T01:04:34.421Z,20.25
2018-06-20T01:05:34.480Z,20.19
2018-06-20T01:06:34.434Z,20.19
2018-06-20T01:07:34.414Z,20.19
2018-06-20T01:08:34.589Z,20.19
2018-06-20T01:09:34.482Z,20.19
2018-06-20T01:10:34.426Z,20.12
2018-06-20T01:11:35.193Z,20.12
2018-06-20T01:12:34.447Z,20.12
2018-06-20T01:13:34.434Z,20.12
2018-06-20T01:14:34.472Z,20.12
2018-06-20T01:15:34.431Z,20.12
2018-06-20T01:16:34.427Z,20.12
2018-06-20T01:17:34.436Z,20.12
2018-06-20T01:18:34.456Z,20.06
2018-06-20T01:19:34.436Z,20.12
2018-06-20T01:20:34.462Z,20.12
2018-06-20T01:21:34.498Z,20.06
2018-06-20T01:22:34.463Z,20.06
2018-06-20T01:23:34.460Z,20.06
2018-06-20T01:24:34.486Z,20.06
2018-06-20T01:25:34.436Z,20.06
2018-06-20T01:26:34.456Z,20.06
2018-06-20T01:27:34.473Z,20.06
2018-06-20T01:28:34.451Z,20
2018-06-20T01:29:34.505Z,20
2018-06-20T01:30:34.464Z,20.06
2018-06-20T01:31:34.441Z,20
2018-06-20T01:32:34.446Z,20
2018-06-20T01:33:34.475Z,20.06
2018-06-20T01:34:34.429Z,20.06
2018-06-20T01:35:34.447Z,20
2018-06-20T01:36:34.555Z,20
2018-06-20T01:37:34.595Z,20
2018-06-20T01:38:34.496Z,20
2018-06-20T01:39:35.192Z,20
2018-06-20T01:40:34.452Z,20
2018-06-20T01:41:34.574Z,20.06
2018-06-20T01:42:34.455Z,20
2018-06-20T01:43:34.465Z,20
2018-06-20T01:44:34.553Z,20
2018-06-20T01:45:34.525Z,20
2018-06-20T01:46:34.466Z,20
2018-06-20T01:47:34.455Z,20
2018-06-20T01:48:34.457Z,20
2018-06-20T01:49:34.514Z,20
2018-06-20T01:50:34.484Z,19.94
2018-06-20T01:51:34.474Z,19.94
2018-06-20T01:52:34.455Z,19.94
2018-06-20T01:53:34.452Z,19.87
2018-06-20T01:54:34.576Z,19.87
2018-06-20T01:55:35.063Z,19.81
2018-06-20T01:56:34.525Z,19.87
2018-06-20T01:57:34.489Z,19.81
2018-06-20T01:58:34.455Z,19.81
2018-06-20T01:59:34.665Z,19.81
2018-06-20T02:00:34.483Z,19.75
2018-06-20T02:01:34.475Z,19.75
2018-06-20T02:02:34.462Z,19.81
2018-06-20T02:03:34.507Z,19.75
2018-06-20T02:04:34.476Z,19.62
2018-06-20T02:05:34.466Z,19.5
2018-06-20T02:06:34.570Z,19.44
2018-06-20T02:07:34.558Z,19.44
2018-06-20T02:08:34.499Z,19.37
2018-06-20T02:09:34.497Z,19.37
2018-06-20T02:10:34.491Z,19.31
2018-06-20T02:11:34.544Z,19.25
2018-06-20T02:12:34.687Z,19.25
2018-06-20T02:13:34.483Z,19.25
2018-06-20T02:14:34.573Z,19.19
2018-06-20T02:15:34.484Z,19.19
2018-06-20T02:16:34.474Z,19.19
2018-06-20T02:17:34.479Z,19.19
2018-06-20T02:18:34.519Z,19.19
2018-06-20T02:19:34.479Z,19.12
2018-06-20T02:20:34.492Z,19.12
2018-06-20T02:21:34.473Z,19.19
2018-06-20T02:22:34.678Z,19.19
2018-06-20T02:23:34.496Z,19.19
2018-06-20T02:24:34.494Z,19.19
2018-06-20T02:25:34.481Z,19.19
2018-06-20T02:26:34.504Z,19.12
2018-06-20T02:27:34.489Z,19.12
2018-06-20T02:28:34.492Z,19.12
2018-06-20T02:29:34.489Z,19.06
2018-06-20T02:30:34.527Z,19
2018-06-20T02:31:34.483Z,19
2018-06-20T02:32:34.550Z,19
2018-06-20T02:33:34.498Z,19.06
2018-06-20T02:34:34.516Z,19
2018-06-20T02:35:34.523Z,19.06
2018-06-20T02:36:34.780Z,19
2018-06-20T02:37:34.543Z,19
2018-06-20T02:38:34.532Z,19
2018-06-20T02:39:34.508Z,18.94
2018-06-20T02:40:34.540Z,18.94
2018-06-20T02:41:34.511Z,18.87
2018-06-20T02:42:34.517Z,18.81
2018-06-20T02:43:34.657Z,18.81
2018-06-20T02:44:34.550Z,18.81
2018-06-20T02:45:34.556Z,18.75
2018-06-20T02:46:34.534Z,18.81
2018-06-20T02:47:34.508Z,18.75
2018-06-20T02:48:34.500Z,18.75
2018-06-20T02:49:34.660Z,18.75
2018-06-20T02:50:34.536Z,18.81
2018-06-20T02:51:34.844Z,18.81
2018-06-20T02:52:35.189Z,18.81
2018-06-20T02:53:34.523Z,18.81
2018-06-20T02:54:34.516Z,18.81
2018-06-20T02:55:34.605Z,18.81
2018-06-20T02:56:34.519Z,18.81
2018-06-20T02:57:34.559Z,18.81
2018-06-20T02:58:34.536Z,18.81
2018-06-20T02:59:34.573Z,18.87
2018-06-20T03:00:34.538Z,18.75
2018-06-20T03:01:34.518Z,18.75
2018-06-20T03:02:34.865Z,18.75
2018-06-20T03:03:34.522Z,18.75
2018-06-20T03:04:34.513Z,18.75
2018-06-20T03:05:34.527Z,18.75
2018-06-20T03:06:34.581Z,18.75
2018-06-20T03:07:34.729Z,18.75
2018-06-20T03:08:34.527Z,18.75
2018-06-20T03:09:34.535Z,18.75
2018-06-20T03:10:34.577Z,18.75
2018-06-20T03:11:34.570Z,18.75
2018-06-20T03:12:34.564Z,18.75
2018-06-20T03:13:34.524Z,18.75
2018-06-20T03:14:34.522Z,18.75
2018-06-20T03:15:34.538Z,18.75
2018-06-20T03:16:34.544Z,18.69
2018-06-20T03:17:34.594Z,18.69
2018-06-20T03:18:34.552Z,18.69
2018-06-20T03:19:34.521Z,18.62
2018-06-20T03:20:34.526Z,18.69
2018-06-20T03:21:34.526Z,18.69
2018-06-20T03:22:34.547Z,18.75
2018-06-20T03:23:34.547Z,18.69
2018-06-20T03:24:34.542Z,18.75
2018-06-20T03:25:34.706Z,18.75
2018-06-20T03:26:34.551Z,18.69
2018-06-20T03:27:34.558Z,18.62
2018-06-20T03:28:34.518Z,18.62
2018-06-20T03:29:34.562Z,18.56
2018-06-20T03:30:34.649Z,18.56
2018-06-20T03:31:34.519Z,18.5
2018-06-20T03:32:34.550Z,18.44
2018-06-20T03:33:34.536Z,18.44
2018-06-20T03:34:34.567Z,18.37
2018-06-20T03:35:34.531Z,18.44
2018-06-20T03:36:34.526Z,18.37
2018-06-20T03:37:34.529Z,18.37
2018-06-20T03:38:34.560Z,18.37
2018-06-20T03:39:34.540Z,18.37
2018-06-20T03:40:34.608Z,18.31
2018-06-20T03:41:34.540Z,18.37
2018-06-20T03:42:34.556Z,18.31
2018-06-20T03:43:34.539Z,18.37
2018-06-20T03:44:34.548Z,18.31
2018-06-20T03:45:34.538Z,18.25
2018-06-20T03:46:34.546Z,18.25
2018-06-20T03:47:34.552Z,18.19
2018-06-20T03:48:34.600Z,18.19
2018-06-20T03:49:34.559Z,18.25
2018-06-20T03:50:34.556Z,18.25
2018-06-20T03:51:34.520Z,18.25
2018-06-20T03:52:34.532Z,18.25
2018-06-20T03:53:34.594Z,18.25
2018-06-20T03:54:34.530Z,18.25
2018-06-20T03:55:34.726Z,18.25
2018-06-20T03:56:34.604Z,18.31
2018-06-20T03:57:34.556Z,18.31
2018-06-20T03:58:34.567Z,18.31
2018-06-20T03:59:34.559Z,18.37
2018-06-20T04:00:34.566Z,18.37
2018-06-20T04:01:34.544Z,18.44
2018-06-20T04:02:34.589Z,18.44
2018-06-20T04:03:34.550Z,18.5
2018-06-20T04:04:34.556Z,18.5
2018-06-20T04:05:34.565Z,18.5
2018-06-20T04:06:34.570Z,18.56
2018-06-20T04:07:34.591Z,18.62
2018-06-20T04:08:34.687Z,18.56
2018-06-20T04:09:34.574Z,18.62
2018-06-20T04:10:34.551Z,18.62
2018-06-20T04:11:34.606Z,18.62
2018-06-20T04:12:34.568Z,18.69
2018-06-20T04:13:34.580Z,18.69
2018-06-20T04:14:34.595Z,18.69
2018-06-20T04:15:34.547Z,18.69
2018-06-20T04:16:34.562Z,18.69
2018-06-20T04:17:34.548Z,18.75
2018-06-20T04:18:34.576Z,18.69
2018-06-20T04:19:34.593Z,18.69
2018-06-20T04:20:34.562Z,18.75
2018-06-20T04:21:34.623Z,18.75
2018-06-20T04:22:34.596Z,18.75
2018-06-20T04:23:34.584Z,18.75
2018-06-20T04:24:34.591Z,18.75
2018-06-20T04:25:34.636Z,18.81
2018-06-20T04:26:34.598Z,18.81
2018-06-20T04:27:34.584Z,18.81
2018-06-20T04:28:34.599Z,18.81
2018-06-20T04:29:34.593Z,18.81
2018-06-20T04:30:34.922Z,18.87
2018-06-20T04:31:34.611Z,18.87
2018-06-20T04:32:34.617Z,18.87
2018-06-20T04:33:34.613Z,18.94
2018-06-20T04:34:34.956Z,18.94
2018-06-20T04:35:34.659Z,18.94
2018-06-20T04:36:34.573Z,18.94
2018-06-20T04:37:34.767Z,18.94
2018-06-20T04:38:34.596Z,19
2018-06-20T04:39:34.601Z,19
2018-06-20T04:40:34.808Z,19
2018-06-20T04:41:34.660Z,19
2018-06-20T04:42:34.576Z,19
2018-06-20T04:43:34.635Z,19.06
2018-06-20T04:44:34.900Z,19
2018-06-20T04:45:34.618Z,19.06
2018-06-20T04:46:34.566Z,19.06
2018-06-20T04:47:34.584Z,19.06
2018-06-20T04:48:34.601Z,19.06
2018-06-20T04:49:34.587Z,19.12
2018-06-20T04:50:34.591Z,19.06
2018-06-20T04:51:34.571Z,19.12
2018-06-20T04:52:34.602Z,19.12
2018-06-20T04:53:34.554Z,19.12
2018-06-20T04:54:34.591Z,19.19
2018-06-20T04:55:34.966Z,19.12
2018-06-20T04:56:34.577Z,19.19
2018-06-20T04:57:34.621Z,19.12
2018-06-20T04:58:34.589Z,19.19
2018-06-20T04:59:34.628Z,19.19
2018-06-20T05:00:34.595Z,19.19
2018-06-20T05:01:34.640Z,19.25
2018-06-20T05:02:34.600Z,19.25
2018-06-20T05:03:34.633Z,19.25
2018-06-20T05:04:34.617Z,19.25
2018-06-20T05:05:34.752Z,19.25
2018-06-20T05:06:34.740Z,19.25
2018-06-20T05:07:34.597Z,19.25
2018-06-20T05:08:34.604Z,19.25
2018-06-20T05:09:34.663Z,19.31
2018-06-20T05:10:34.609Z,19.31
2018-06-20T05:11:34.655Z,19.31
2018-06-20T05:12:34.635Z,19.31
2018-06-20T05:13:34.658Z,19.31
2018-06-20T05:14:34.835Z,19.31
2018-06-20T05:15:34.590Z,19.37
2018-06-20T05:16:34.683Z,19.37
2018-06-20T05:17:34.633Z,19.37
2018-06-20T05:18:34.600Z,19.37
2018-06-20T05:19:34.614Z,19.44
2018-06-20T05:20:34.637Z,19.44
2018-06-20T05:21:34.634Z,19.44
2018-06-20T05:22:34.992Z,19.5
2018-06-20T05:23:34.658Z,19.5
2018-06-20T05:24:34.813Z,19.5
2018-06-20T05:25:34.610Z,19.5
2018-06-20T05:26:34.881Z,19.56
2018-06-20T05:27:34.907Z,19.56
2018-06-20T05:28:34.782Z,19.56
2018-06-20T05:29:34.710Z,19.56
2018-06-20T05:30:34.793Z,19.62
2018-06-20T05:31:34.787Z,19.62
2018-06-20T05:32:34.752Z,19.62
2018-06-20T05:33:34.924Z,19.69
2018-06-20T05:34:34.788Z,19.69
2018-06-20T05:35:34.774Z,19.75
2018-06-20T05:36:34.821Z,19.75
2018-06-20T05:37:34.764Z,19.75
2018-06-20T05:38:34.848Z,19.81
2018-06-20T05:39:34.833Z,19.81
2018-06-20T05:40:34.866Z,19.75
2018-06-20T05:41:34.781Z,19.81
2018-06-20T05:42:34.828Z,19.81
2018-06-20T05:43:34.858Z,19.87
2018-06-20T05:44:34.853Z,19.87
2018-06-20T05:45:34.850Z,19.87
2018-06-20T05:46:34.775Z,19.94
2018-06-20T05:47:34.868Z,19.94
2018-06-20T05:48:34.786Z,19.94
2018-06-20T05:49:34.878Z,19.94
2018-06-20T05:50:34.875Z,19.94
2018-06-20T05:51:34.880Z,20
2018-06-20T05:52:34.784Z,19.94
2018-06-20T05:53:34.869Z,20
2018-06-20T05:54:34.754Z,20
2018-06-20T05:55:34.789Z,20
2018-06-20T05:56:34.837Z,20.06
2018-06-20T05:57:34.841Z,20.12
2018-06-20T05:58:34.815Z,20.06
2018-06-20T05:59:34.861Z,20.12
2018-06-20T06:00:34.759Z,20.12
2018-06-20T06:01:34.877Z,20.12
2018-06-20T06:02:34.771Z,20.12
2018-06-20T06:03:34.973Z,20.12
2018-06-20T06:04:34.817Z,20.12
2018-06-20T06:05:34.877Z,20.19
2018-06-20T06:06:34.758Z,20.19
2018-06-20T06:07:34.868Z,20.19
2018-06-20T06:08:35.001Z,20.19
2018-06-20T06:09:34.769Z,20.25
2018-06-20T06:10:34.893Z,20.25
2018-06-20T06:11:34.854Z,20.31
2018-06-20T06:12:34.862Z,20.37
2018-06-20T06:13:34.888Z,20.37
2018-06-20T06:14:34.875Z,20.37
2018-06-20T06:15:34.891Z,20.44
2018-06-20T06:16:34.862Z,20.44
2018-06-20T06:17:34.935Z,20.44
2018-06-20T06:18:34.796Z,20.5
2018-06-20T06:19:34.911Z,20.5
2018-06-20T06:20:34.889Z,20.56
2018-06-20T06:21:34.832Z,20.56
2018-06-20T06:22:34.986Z,20.56
2018-06-20T06:23:35.046Z,20.62
2018-06-20T06:24:34.680Z,20.62
2018-06-20T06:25:34.652Z,20.56
2018-06-20T06:26:34.663Z,20.62
2018-06-20T06:27:34.689Z,20.62
2018-06-20T06:28:34.989Z,20.62
2018-06-20T06:29:34.858Z,20.69
2018-06-20T06:30:35.154Z,20.69
2018-06-20T06:31:34.657Z,20.75
2018-06-20T06:32:34.690Z,20.75
2018-06-20T06:33:34.885Z,20.81
2018-06-20T06:34:34.686Z,20.81
2018-06-20T06:35:34.681Z,20.88
2018-06-20T06:36:34.684Z,20.94
2018-06-20T06:37:35.119Z,20.94
2018-06-20T06:38:34.671Z,20.94
2018-06-20T06:39:34.692Z,20.94
2018-06-20T06:40:34.715Z,21
2018-06-20T06:41:34.675Z,21
2018-06-20T06:42:34.659Z,21.06
2018-06-20T06:43:34.659Z,21.06
2018-06-20T06:44:35.128Z,21.06
2018-06-20T06:45:35.292Z,21.12
2018-06-20T06:46:34.689Z,21.12
2018-06-20T06:47:34.713Z,21.19
2018-06-20T06:48:34.716Z,21.25
2018-06-20T06:49:35.307Z,21.25
2018-06-20T06:50:34.683Z,21.25
2018-06-20T06:51:34.726Z,21.31
2018-06-20T06:52:34.729Z,21.31
2018-06-20T06:53:34.657Z,21.37
2018-06-20T06:54:34.674Z,21.37
2018-06-20T06:55:34.660Z,21.44
2018-06-20T06:56:34.743Z,21.5
2018-06-20T06:57:34.670Z,21.44
2018-06-20T06:58:34.745Z,21.5
2018-06-20T06:59:34.658Z,21.56
2018-06-20T07:00:34.801Z,21.56
2018-06-20T07:01:34.893Z,21.62
2018-06-20T07:02:35.329Z,21.62
2018-06-20T07:03:34.699Z,21.69
2018-06-20T07:04:34.670Z,21.69
2018-06-20T07:05:34.750Z,21.75
2018-06-20T07:06:34.684Z,21.81
2018-06-20T07:07:34.692Z,21.81
2018-06-20T07:08:34.760Z,21.87
2018-06-20T07:09:34.706Z,21.94
2018-06-20T07:10:34.689Z,21.94
2018-06-20T07:11:34.708Z,22
2018-06-20T07:12:34.663Z,22.06
2018-06-20T07:13:34.693Z,22.06
2018-06-20T07:14:34.711Z,22.06
2018-06-20T07:15:35.815Z,22.13
2018-06-20T07:16:34.746Z,22.13
2018-06-20T07:17:34.751Z,22.13
2018-06-20T07:18:34.737Z,22.19
2018-06-20T07:19:34.699Z,22.25
2018-06-20T07:20:34.724Z,22.31
2018-06-20T07:21:34.728Z,22.31
2018-06-20T07:22:34.701Z,22.37
2018-06-20T07:23:34.755Z,22.37
2018-06-20T07:24:35.527Z,22.37
2018-06-20T07:25:34.688Z,22.44
2018-06-20T07:26:34.731Z,22.44
2018-06-20T07:27:34.717Z,22.44
2018-06-20T07:28:35.027Z,22.5
2018-06-20T07:29:34.733Z,22.5
2018-06-20T07:30:34.684Z,22.5
2018-06-20T07:31:34.689Z,22.56
2018-06-20T07:32:34.776Z,22.56
2018-06-20T07:33:34.731Z,22.62
2018-06-20T07:34:35.419Z,22.69
2018-06-20T07:35:36.886Z,22.69
2018-06-20T07:36:34.716Z,22.75
2018-06-20T07:37:34.772Z,22.81
2018-06-20T07:38:34.774Z,22.81
2018-06-20T07:39:35.121Z,22.94
2018-06-20T07:40:34.750Z,22.94
2018-06-20T07:41:34.762Z,22.94
2018-06-20T07:42:34.774Z,22.94
2018-06-20T07:43:34.741Z,22.94
2018-06-20T07:44:34.742Z,23
2018-06-20T07:45:34.824Z,23.06
2018-06-20T07:46:34.679Z,23.06
2018-06-20T07:47:34.720Z,23.12
2018-06-20T07:48:34.730Z,23.19
2018-06-20T07:49:34.893Z,23.19
2018-06-20T07:50:34.770Z,23.25
2018-06-20T07:51:34.853Z,23.25
2018-06-20T07:52:34.964Z,23.25
2018-06-20T07:53:34.818Z,23.31
2018-06-20T07:54:34.951Z,23.25
2018-06-20T07:55:34.899Z,23.31
2018-06-20T07:56:34.862Z,23.31
2018-06-20T07:57:34.834Z,23.31
2018-06-20T07:58:34.888Z,23.38
2018-06-20T07:59:34.798Z,23.38
2018-06-20T08:00:35.225Z,23.38
2018-06-20T08:01:34.843Z,23.44
2018-06-20T08:02:34.804Z,23.44
2018-06-20T08:03:34.989Z,23.44
2018-06-20T08:04:34.833Z,23.5
2018-06-20T08:05:34.782Z,23.5
2018-06-20T08:06:34.834Z,23.56
2018-06-20T08:07:34.832Z,23.56
2018-06-20T08:08:34.816Z,23.56
2018-06-20T08:09:34.839Z,23.56
2018-06-20T08:10:34.837Z,23.62
2018-06-20T08:11:34.859Z,23.62
2018-06-20T08:12:34.859Z,23.69
2018-06-20T08:13:34.877Z,23.75
2018-06-20T08:14:34.859Z,23.75
2018-06-20T08:15:34.866Z,23.81
2018-06-20T08:16:34.860Z,23.81
2018-06-20T08:17:34.873Z,23.81
2018-06-20T08:18:34.836Z,23.87
2018-06-20T08:19:34.879Z,23.87
2018-06-20T08:20:34.875Z,23.87
2018-06-20T08:21:34.872Z,23.94
2018-06-20T08:22:34.857Z,23.87
2018-06-20T08:23:34.833Z,24
2018-06-20T08:24:34.826Z,24
2018-06-20T08:25:34.846Z,23.94
2018-06-20T08:26:34.852Z,23.94
2018-06-20T08:27:34.866Z,24
2018-06-20T08:28:34.872Z,24
2018-06-20T08:29:34.848Z,24.06
2018-06-20T08:30:34.854Z,24.12
2018-06-20T08:31:34.859Z,24.19
2018-06-20T08:32:34.882Z,24.25
2018-06-20T08:33:34.882Z,24.25
2018-06-20T08:34:34.865Z,24.31
2018-06-20T08:35:34.886Z,24.37
2018-06-20T08:36:35.031Z,24.37
2018-06-20T08:37:34.891Z,24.44
2018-06-20T08:38:34.951Z,24.5
2018-06-20T08:39:34.918Z,24.5
2018-06-20T08:40:34.901Z,24.56
2018-06-20T08:41:35.216Z,24.56
2018-06-20T08:42:35.175Z,24.56
2018-06-20T08:43:34.890Z,24.63
2018-06-20T08:44:35.129Z,24.63
2018-06-20T08:45:34.931Z,24.63
2018-06-20T08:46:34.898Z,24.69
2018-06-20T08:47:34.978Z,24.63
2018-06-20T08:48:34.965Z,24.63
2018-06-20T08:49:34.926Z,24.63
2018-06-20T08:50:34.951Z,24.56
2018-06-20T08:51:35.096Z,24.5
2018-06-20T08:52:35.134Z,24.5
2018-06-20T08:53:34.971Z,24.5
2018-06-20T08:54:34.895Z,24.56
2018-06-20T08:55:34.936Z,24.56
2018-06-20T08:56:34.884Z,24.63
2018-06-20T08:57:35.132Z,24.75
2018-06-20T08:58:34.985Z,24.81
2018-06-20T08:59:34.942Z,24.81
2018-06-20T09:00:34.812Z,24.87
2018-06-20T09:01:34.740Z,24.94
2018-06-20T09:02:34.773Z,24.94
2018-06-20T09:03:34.823Z,24.94
2018-06-20T09:04:34.788Z,25
2018-06-20T09:05:34.797Z,25.06
2018-06-20T09:06:34.857Z,25.06
2018-06-20T09:07:34.762Z,25
2018-06-20T09:08:35.227Z,25.06
2018-06-20T09:09:34.783Z,25
2018-06-20T09:10:34.754Z,25
2018-06-20T09:11:34.793Z,25
2018-06-20T09:12:34.805Z,25.06
2018-06-20T09:13:34.754Z,25.12
2018-06-20T09:14:34.806Z,25.19
2018-06-20T09:15:34.828Z,25.19
2018-06-20T09:16:34.800Z,25.25
2018-06-20T09:17:34.795Z,25.37
2018-06-20T09:18:34.841Z,25.37
2018-06-20T09:19:34.782Z,25.37
2018-06-20T09:20:34.854Z,25.44
2018-06-20T09:21:34.801Z,25.44
2018-06-20T09:22:34.800Z,25.44
2018-06-20T09:23:34.804Z,25.5
2018-06-20T09:24:34.825Z,25.44
2018-06-20T09:25:34.785Z,25.5
2018-06-20T09:26:34.763Z,25.5
2018-06-20T09:27:34.789Z,25.44
2018-06-20T09:28:34.787Z,25.5
2018-06-20T09:29:34.775Z,25.56
2018-06-20T09:30:34.811Z,25.56
2018-06-20T09:31:34.840Z,25.62
2018-06-20T09:32:34.794Z,25.69
2018-06-20T09:33:34.846Z,25.75
2018-06-20T09:34:34.820Z,25.81
2018-06-20T09:35:34.826Z,25.88
2018-06-20T09:36:34.780Z,25.88
2018-06-20T09:37:34.778Z,26
2018-06-20T09:38:35.251Z,26.06
2018-06-20T09:39:35.190Z,26.06
2018-06-20T09:40:34.791Z,26.12
2018-06-20T09:41:34.794Z,26.06
2018-06-20T09:42:34.907Z,25.94
2018-06-20T09:43:34.822Z,26
2018-06-20T09:44:35.207Z,26
2018-06-20T09:45:34.792Z,26
2018-06-20T09:46:34.846Z,26.12
2018-06-20T09:47:34.851Z,26.12
2018-06-20T09:48:34.905Z,26.19
2018-06-20T09:49:34.849Z,26.25
2018-06-20T09:50:34.901Z,26.25
2018-06-20T09:51:34.897Z,26.31
2018-06-20T09:52:34.820Z,26.44
2018-06-20T09:53:34.863Z,26.44
2018-06-20T09:54:34.854Z,26.44
2018-06-20T09:55:34.904Z,26.5
2018-06-20T09:56:34.829Z,26.5
2018-06-20T09:57:34.797Z,26.56
2018-06-20T09:58:34.827Z,26.62
2018-06-20T09:59:34.788Z,26.62
2018-06-20T10:00:35.119Z,26.69
2018-06-20T10:01:35.497Z,26.75
2018-06-20T10:02:34.828Z,26.75
2018-06-20T10:03:34.892Z,26.81
2018-06-20T10:04:34.798Z,26.87
2018-06-20T10:05:34.997Z,26.81
2018-06-20T10:06:34.875Z,26.87
2018-06-20T10:07:34.846Z,26.81
2018-06-20T10:08:34.817Z,26.81
2018-06-20T10:09:34.815Z,26.81
2018-06-20T10:10:34.936Z,26.87
2018-06-20T10:11:34.856Z,26.87
2018-06-20T10:12:34.938Z,26.87
2018-06-20T10:13:34.857Z,26.75
2018-06-20T10:14:34.817Z,26.75
2018-06-20T10:15:34.800Z,26.69
2018-06-20T10:16:35.041Z,26.69
2018-06-20T10:17:34.898Z,26.75
2018-06-20T10:18:34.820Z,26.81
2018-06-20T10:19:34.823Z,26.87
2018-06-20T10:20:34.830Z,26.94
2018-06-20T10:21:34.845Z,27
2018-06-20T10:22:34.845Z,27.06
2018-06-20T10:23:34.972Z,27.13
2018-06-20T10:24:34.844Z,27.19
2018-06-20T10:25:34.836Z,27.25
2018-06-20T10:26:34.952Z,27.25
2018-06-20T10:27:34.892Z,27.31
2018-06-20T10:28:35.225Z,27.31
2018-06-20T10:29:34.890Z,27.37
2018-06-20T10:30:34.992Z,27.31
2018-06-20T10:31:34.828Z,27.37
2018-06-20T10:32:34.890Z,27.31
2018-06-20T10:33:34.828Z,27.37
2018-06-20T10:34:34.850Z,27.31
2018-06-20T10:35:34.840Z,27.31
2018-06-20T10:36:34.839Z,27.31
2018-06-20T10:37:34.918Z,27.31
2018-06-20T10:38:34.850Z,27.31
2018-06-20T10:39:34.861Z,27.37
2018-06-20T10:40:34.888Z,27.37
2018-06-20T10:41:34.870Z,27.44
2018-06-20T10:42:34.879Z,27.44
2018-06-20T10:43:34.859Z,27.44
2018-06-20T10:44:34.863Z,27.5
2018-06-20T10:45:34.871Z,27.5
2018-06-20T10:46:34.893Z,27.5
2018-06-20T10:47:34.825Z,27.5
2018-06-20T10:48:34.847Z,27.5
2018-06-20T10:49:34.893Z,27.44
2018-06-20T10:50:34.929Z,27.5
2018-06-20T10:51:35.119Z,27.56
2018-06-20T10:52:34.871Z,27.56
2018-06-20T10:53:34.878Z,27.69
2018-06-20T10:54:34.985Z,27.69
2018-06-20T10:55:35.055Z,27.69
2018-06-20T10:56:35.076Z,27.75
2018-06-20T10:57:34.857Z,27.87
2018-06-20T10:58:34.996Z,27.87
2018-06-20T10:59:34.892Z,27.94
2018-06-20T11:00:35.151Z,28
2018-06-20T11:01:34.995Z,27.94
2018-06-20T11:02:34.826Z,28
2018-06-20T11:03:34.827Z,28
2018-06-20T11:04:34.843Z,27.94
2018-06-20T11:05:34.851Z,27.94
2018-06-20T11:06:34.859Z,27.94
2018-06-20T11:07:35.092Z,27.81
2018-06-20T11:08:34.884Z,27.75
2018-06-20T11:09:35.274Z,27.75
2018-06-20T11:10:34.878Z,27.69
2018-06-20T11:11:35.048Z,27.69
2018-06-20T11:12:34.837Z,27.75
2018-06-20T11:13:35.021Z,27.69
2018-06-20T11:14:34.902Z,27.81
2018-06-20T11:15:34.875Z,27.81
2018-06-20T11:16:34.864Z,27.94
2018-06-20T11:17:34.902Z,28.06
2018-06-20T11:18:34.940Z,28.06
2018-06-20T11:19:35.019Z,28.12
2018-06-20T11:20:34.905Z,28.19
2018-06-20T11:21:34.903Z,28.25
2018-06-20T11:22:34.880Z,28.25
2018-06-20T11:23:34.912Z,28.31
2018-06-20T11:24:34.936Z,28.31
2018-06-20T11:25:35.242Z,28.31
2018-06-20T11:26:34.916Z,28.38
2018-06-20T11:27:34.908Z,28.38
2018-06-20T11:28:34.937Z,28.44
2018-06-20T11:29:34.871Z,28.44
2018-06-20T11:30:34.886Z,28.5
2018-06-20T11:31:34.875Z,28.5
2018-06-20T11:32:34.872Z,28.56
2018-06-20T11:33:34.864Z,28.56
2018-06-20T11:34:34.879Z,28.56
2018-06-20T11:35:34.902Z,28.56
2018-06-20T11:36:34.875Z,28.62
2018-06-20T11:37:34.879Z,28.62
2018-06-20T11:38:34.855Z,28.62
2018-06-20T11:39:35.652Z,28.62
2018-06-20T11:40:35.015Z,28.69
2018-06-20T11:41:34.880Z,28.69
2018-06-20T11:42:34.900Z,28.75
2018-06-20T11:43:34.892Z,28.75
2018-06-20T11:44:34.884Z,28.75
2018-06-20T11:45:34.912Z,28.81
2018-06-20T11:46:34.909Z,28.75
2018-06-20T11:47:34.884Z,28.69
2018-06-20T11:48:34.892Z,28.69
2018-06-20T11:49:34.885Z,28.75
2018-06-20T11:50:35.010Z,28.81
2018-06-20T11:51:34.918Z,28.87
2018-06-20T11:52:34.907Z,28.94
2018-06-20T11:53:34.895Z,29.06
2018-06-20T11:54:35.104Z,29.12
2018-06-20T11:55:34.877Z,29
2018-06-20T11:56:35.050Z,29
2018-06-20T11:57:34.951Z,29.06
2018-06-20T11:58:34.948Z,29.06
2018-06-20T11:59:34.904Z,29.19
2018-06-20T12:00:34.960Z,29.19
2018-06-20T12:01:34.948Z,29.25
2018-06-20T12:02:34.917Z,29.31
2018-06-20T12:03:34.997Z,29.37
2018-06-20T12:04:34.898Z,29.37
2018-06-20T12:05:35.043Z,29.31
2018-06-20T12:06:34.917Z,29.31
2018-06-20T12:07:34.899Z,29.37
2018-06-20T12:08:34.916Z,29.44
2018-06-20T12:09:34.905Z,29.37
2018-06-20T12:10:34.935Z,29.44
2018-06-20T12:11:35.047Z,29.5
2018-06-20T12:12:34.912Z,29.56
2018-06-20T12:13:35.367Z,29.56
2018-06-20T12:14:34.899Z,29.63
2018-06-20T12:15:34.947Z,29.69
2018-06-20T12:16:35.096Z,29.75
2018-06-20T12:17:34.943Z,29.75
2018-06-20T12:18:34.951Z,29.81
2018-06-20T12:19:35.034Z,29.87
2018-06-20T12:20:34.959Z,29.87
2018-06-20T12:21:35.142Z,29.94
2018-06-20T12:22:35.021Z,29.94
2018-06-20T12:23:34.931Z,30
2018-06-20T12:24:34.902Z,30
2018-06-20T12:25:34.928Z,30
2018-06-20T12:26:34.989Z,30
2018-06-20T12:27:35.146Z,30.06
2018-06-20T12:28:34.976Z,30.06
2018-06-20T12:29:35.001Z,30.12
2018-06-20T12:30:34.980Z,30.12
2018-06-20T12:31:34.939Z,30.19
2018-06-20T12:32:34.918Z,30.19
2018-06-20T12:33:35.085Z,30.31
2018-06-20T12:34:34.939Z,30.31
2018-06-20T12:35:34.922Z,30.25
2018-06-20T12:36:35.277Z,30.31
2018-06-20T12:37:34.978Z,30.31
2018-06-20T12:38:35.124Z,30.31
2018-06-20T12:39:35.007Z,30.37
2018-06-20T12:40:35.106Z,30.37
2018-06-20T12:41:34.942Z,30.37
2018-06-20T12:42:35.091Z,30.37
2018-06-20T12:43:35.101Z,30.37
2018-06-20T12:44:34.924Z,30.37
2018-06-20T12:45:34.981Z,30.44
2018-06-20T12:46:34.925Z,30.44
2018-06-20T12:47:34.947Z,30.44
2018-06-20T12:48:34.926Z,30.44
2018-06-20T12:49:34.952Z,30.44
2018-06-20T12:50:34.950Z,30.44
2018-06-20T12:51:34.934Z,30.44
2018-06-20T12:52:35.523Z,30.5
2018-06-20T12:53:34.973Z,30.44
2018-06-20T12:54:34.993Z,30.44
2018-06-20T12:55:34.941Z,30.5
2018-06-20T12:56:34.923Z,30.5
2018-06-20T12:57:34.967Z,30.5
2018-06-20T12:58:35.002Z,30.56
2018-06-20T12:59:35.109Z,30.5
2018-06-20T13:00:35.084Z,30.5